createdAt,value
2022-12-27T00:01:09.759Z,7.70
2022-12-27T00:03:36.674Z,7.61
2022-12-27T00:06:08.545Z,7.62
2022-12-27T00:08:35.619Z,7.53
2022-12-27T00:11:09.879Z,7.53
2022-12-27T00:13:36.788Z,7.52
2022-12-27T00:16:05.449Z,7.56
2022-12-27T00:18:33.076Z,7.38
2022-12-27T00:21:01.546Z,7.28
2022-12-27T00:23:32.719Z,7.20
2022-12-27T00:26:05.324Z,7.21
2022-12-27T00:28:35.481Z,7.14
2022-12-27T00:31:05.075Z,7.10
2022-12-27T00:33:35.767Z,6.99
2022-12-27T00:36:06.342Z,6.92
2022-12-27T00:38:33.984Z,6.82
2022-12-27T00:41:01.286Z,6.77
2022-12-27T00:43:28.296Z,6.67
2022-12-27T00:45:56.704Z,6.65
2022-12-27T00:48:24.889Z,6.67
2022-12-27T00:50:58.775Z,6.55
2022-12-27T00:53:27.026Z,6.52
2022-12-27T00:55:53.911Z,6.50
2022-12-27T00:58:21.055Z,6.45
2022-12-27T01:00:48.852Z,6.43
2022-12-27T01:03:19.354Z,6.41
2022-12-27T01:05:46.421Z,6.38
2022-12-27T01:08:14.236Z,6.38
2022-12-27T01:10:41.757Z,6.32
2022-12-27T01:13:09.054Z,6.29
2022-12-27T01:15:35.895Z,6.28
2022-12-27T01:18:03.046Z,6.22
2022-12-27T01:20:31.169Z,6.22
2022-12-27T01:22:57.987Z,6.22
2022-12-27T01:25:25.071Z,6.22
2022-12-27T01:27:51.836Z,6.20
2022-12-27T01:30:18.920Z,6.14
2022-12-27T01:32:45.682Z,6.15
2022-12-27T01:35:12.559Z,6.13
2022-12-27T01:37:40.705Z,6.09
2022-12-27T01:40:09.679Z,6.08
2022-12-27T01:42:36.536Z,6.11
2022-12-27T01:45:13.728Z,6.08
2022-12-27T01:47:51.490Z,6.09
2022-12-27T01:50:33.444Z,6.07
2022-12-27T01:53:11.889Z,6.06
2022-12-27T01:55:47.364Z,6.05
2022-12-27T01:58:28.335Z,6.01
2022-12-27T02:00:57.014Z,5.98
2022-12-27T02:03:29.541Z,5.99
2022-12-27T02:05:59.700Z,5.94
2022-12-27T02:08:42.703Z,5.87
2022-12-27T02:11:13.159Z,5.85
2022-12-27T02:13:46.479Z,5.79
2022-12-27T02:16:19.109Z,5.80
2022-12-27T02:18:47.115Z,5.78
2022-12-27T02:22:06.541Z,5.78
2022-12-27T02:25:03.066Z,5.83
2022-12-27T02:27:49.190Z,5.85
2022-12-27T02:30:17.783Z,5.85
2022-12-27T02:32:54.578Z,5.84
2022-12-27T02:35:29.908Z,5.84
2022-12-27T02:38:05.074Z,5.83
2022-12-27T02:40:35.667Z,5.83
2022-12-27T02:43:04.202Z,5.80
2022-12-27T02:45:41.188Z,5.80
2022-12-27T02:48:14.851Z,5.77
2022-12-27T02:51:05.771Z,5.75
2022-12-27T02:53:54.286Z,5.75
2022-12-27T02:56:37.991Z,5.76
2022-12-27T02:59:28.498Z,5.72
2022-12-27T03:02:17.440Z,5.76
2022-12-27T03:05:07.604Z,5.79
2022-12-27T03:07:46.495Z,5.79
2022-12-27T03:10:31.584Z,5.78
2022-12-27T03:13:21.052Z,5.77
2022-12-27T03:16:07.182Z,5.71
2022-12-27T03:18:54.123Z,5.72
2022-12-27T03:21:28.534Z,5.73
2022-12-27T03:23:58.439Z,5.73
2022-12-27T03:26:32.964Z,5.76
2022-12-27T03:29:02.954Z,5.75
2022-12-27T03:31:35.232Z,5.75
2022-12-27T03:34:09.098Z,5.77
2022-12-27T03:36:36.411Z,5.78
2022-12-27T03:39:12.955Z,5.68
2022-12-27T03:41:47.335Z,5.65
2022-12-27T03:44:15.210Z,5.66
2022-12-27T03:46:43.493Z,5.57
2022-12-27T03:49:24.749Z,5.56
2022-12-27T03:52:00.970Z,5.36
2022-12-27T03:54:34.225Z,5.35
2022-12-27T03:57:05.586Z,5.18
2022-12-27T03:59:32.735Z,5.27
2022-12-27T04:02:01.023Z,5.34
2022-12-27T04:04:29.231Z,5.28
2022-12-27T04:06:56.268Z,5.23
2022-12-27T04:09:23.724Z,5.29
2022-12-27T04:11:50.535Z,5.27
2022-12-27T04:14:17.398Z,5.26
2022-12-27T04:16:44.345Z,5.23
2022-12-27T04:19:11.550Z,5.21
2022-12-27T04:21:39.681Z,5.03
2022-12-27T04:24:07.010Z,5.09
2022-12-27T04:26:34.122Z,5.04
2022-12-27T04:29:00.928Z,4.95
2022-12-27T04:31:28.176Z,4.91
2022-12-27T04:33:55.251Z,4.70
2022-12-27T04:36:22.035Z,4.66
2022-12-27T04:38:50.209Z,4.34
2022-12-27T04:41:17.150Z,4.26
2022-12-27T04:43:43.989Z,4.12
2022-12-27T04:46:22.150Z,4.03
2022-12-27T04:48:48.978Z,4.00
2022-12-27T04:51:15.827Z,4.02
2022-12-27T04:53:43.049Z,4.04
2022-12-27T04:56:11.218Z,4.02
2022-12-27T04:58:38.120Z,4.17
2022-12-27T05:01:10.569Z,4.22
2022-12-27T05:03:41.926Z,4.36
2022-12-27T05:06:09.700Z,4.40
2022-12-27T05:08:37.552Z,4.26
2022-12-27T05:11:05.024Z,4.08
2022-12-27T05:13:33.673Z,3.89
2022-12-27T05:16:00.660Z,3.82
2022-12-27T05:18:27.899Z,3.84
2022-12-27T05:20:55.074Z,3.82
2022-12-27T05:23:22.133Z,3.72
2022-12-27T05:25:49.128Z,3.72
2022-12-27T05:28:15.975Z,3.72
2022-12-27T05:30:44.817Z,3.73
2022-12-27T05:33:12.170Z,3.60
2022-12-27T05:35:40.275Z,3.53
2022-12-27T05:38:07.319Z,3.58
2022-12-27T05:40:35.085Z,3.72
2022-12-27T05:43:04.156Z,3.82
2022-12-27T05:45:31.071Z,3.75
2022-12-27T05:48:00.024Z,3.68
2022-12-27T05:50:27.420Z,3.69
2022-12-27T05:53:09.887Z,3.71
2022-12-27T05:55:37.609Z,3.60
2022-12-27T05:58:04.640Z,3.53
2022-12-27T06:00:31.548Z,3.47
2022-12-27T06:02:59.758Z,3.51
2022-12-27T06:05:26.802Z,3.38
2022-12-27T06:07:53.624Z,3.37
2022-12-27T06:10:20.659Z,3.44
2022-12-27T06:12:47.519Z,3.44
2022-12-27T06:15:14.374Z,3.49
2022-12-27T06:17:41.165Z,3.40
2022-12-27T06:20:10.249Z,3.39
2022-12-27T06:22:37.111Z,3.49
2022-12-27T06:25:04.674Z,3.56
2022-12-27T06:27:31.520Z,3.69
2022-12-27T06:29:59.424Z,3.85
2022-12-27T06:32:26.369Z,3.97
2022-12-27T06:34:53.436Z,4.07
2022-12-27T06:37:21.693Z,4.14
2022-12-27T06:39:48.572Z,4.17
2022-12-27T06:42:15.312Z,4.17
2022-12-27T06:44:42.302Z,3.88
2022-12-27T06:47:09.195Z,3.74
2022-12-27T06:49:36.174Z,3.62
2022-12-27T06:52:03.143Z,3.48
2022-12-27T06:54:31.366Z,3.52
2022-12-27T06:56:58.933Z,3.68
2022-12-27T06:59:26.383Z,3.83
2022-12-27T07:01:53.371Z,3.94
2022-12-27T07:04:20.529Z,4.03
2022-12-27T07:06:47.262Z,4.12
2022-12-27T07:09:14.017Z,4.17
2022-12-27T07:11:42.261Z,4.23
2022-12-27T07:14:10.417Z,4.18
2022-12-27T07:16:37.987Z,4.15
2022-12-27T07:19:05.403Z,3.97
2022-12-27T07:21:32.444Z,3.56
2022-12-27T07:23:59.205Z,3.42
2022-12-27T07:26:28.888Z,3.37
2022-12-27T07:29:00.186Z,3.49
2022-12-27T07:31:30.724Z,3.52
2022-12-27T07:33:59.912Z,3.75
2022-12-27T07:36:31.666Z,4.03
2022-12-27T07:38:59.016Z,3.50
2022-12-27T07:41:26.135Z,3.29
2022-12-27T07:43:53.784Z,3.12
2022-12-27T07:46:24.938Z,3.49
2022-12-27T07:48:54.825Z,3.33
2022-12-27T07:51:23.232Z,3.51
2022-12-27T07:53:51.532Z,3.88
2022-12-27T07:56:25.714Z,4.28
2022-12-27T07:58:55.712Z,4.23
2022-12-27T08:01:26.907Z,4.01
2022-12-27T08:03:54.391Z,4.22
2022-12-27T08:06:28.379Z,4.36
2022-12-27T08:08:58.407Z,4.55
2022-12-27T08:11:25.661Z,5.20
2022-12-27T08:13:52.596Z,5.23
2022-12-27T08:16:23.062Z,5.26
2022-12-27T08:18:51.670Z,4.74
2022-12-27T08:21:19.185Z,4.95
2022-12-27T08:23:45.998Z,5.76
2022-12-27T08:26:12.960Z,5.93
2022-12-27T08:28:39.823Z,5.33
2022-12-27T08:31:07.860Z,5.81
2022-12-27T08:33:36.387Z,6.21
2022-12-27T08:36:29.252Z,7.38
2022-12-27T08:38:55.755Z,8.49
2022-12-27T08:41:23.573Z,9.59
2022-12-27T08:43:50.748Z,9.79
2022-12-27T08:46:17.867Z,10.03
2022-12-27T08:48:47.713Z,7.64
2022-12-27T08:51:23.416Z,7.05
2022-12-27T08:53:58.784Z,7.38
2022-12-27T08:56:25.691Z,7.34
2022-12-27T08:58:52.658Z,8.71
2022-12-27T09:01:20.344Z,9.80
2022-12-27T09:03:47.465Z,8.50
2022-12-27T09:06:18.592Z,8.55
2022-12-27T09:08:48.411Z,8.16
2022-12-27T09:11:18.278Z,8.91
2022-12-27T09:13:46.369Z,9.93
2022-12-27T09:16:16.397Z,9.80
2022-12-27T09:18:43.898Z,10.85
2022-12-27T09:21:13.696Z,11.47
2022-12-27T09:23:42.649Z,12.51
2022-12-27T09:26:12.870Z,12.87
2022-12-27T09:28:40.668Z,13.73
2022-12-27T09:31:10.492Z,14.39
2022-12-27T09:33:38.088Z,13.18
2022-12-27T09:36:09.157Z,12.45
2022-12-27T09:38:36.936Z,10.75
2022-12-27T09:41:40.864Z,10.06
2022-12-27T09:44:13.465Z,11.36
2022-12-27T09:46:49.616Z,11.93
2022-12-27T09:49:30.005Z,13.14
2022-12-27T09:52:04.822Z,14.31
2022-12-27T09:54:46.623Z,13.63
2022-12-27T09:57:25.093Z,13.27
2022-12-27T09:59:59.190Z,11.94
2022-12-27T10:02:28.671Z,11.56
2022-12-27T10:08:06.489Z,13.23
2022-12-27T10:10:45.700Z,14.67
2022-12-27T10:13:34.571Z,10.85
2022-12-27T10:16:17.850Z,11.32
2022-12-27T10:19:05.928Z,10.83
2022-12-27T10:21:40.002Z,9.60
2022-12-27T10:24:20.652Z,9.94
2022-12-27T10:26:47.635Z,11.28
2022-12-27T10:29:21.658Z,12.59
2022-12-27T10:31:49.156Z,12.51
2022-12-27T10:34:18.966Z,11.28
2022-12-27T10:36:45.980Z,12.24
2022-12-27T10:39:26.321Z,12.13
2022-12-27T10:42:07.933Z,9.48
2022-12-27T10:44:36.249Z,8.88
2022-12-27T10:47:03.555Z,9.69
2022-12-27T10:49:33.256Z,9.50
2022-12-27T10:52:09.804Z,11.89
2022-12-27T10:54:51.040Z,12.33
2022-12-27T10:57:27.424Z,13.79
2022-12-27T11:00:17.486Z,14.17
2022-12-27T11:02:53.336Z,14.56
2022-12-27T11:05:24.084Z,12.99
2022-12-27T11:07:51.244Z,13.64
2022-12-27T11:10:22.877Z,15.24
2022-12-27T11:12:59.100Z,13.66
2022-12-27T11:15:32.130Z,12.47
2022-12-27T11:18:03.837Z,12.24
2022-12-27T11:20:34.021Z,12.03
2022-12-27T11:23:12.719Z,13.05
2022-12-27T11:25:54.159Z,14.55
2022-12-27T11:28:35.729Z,13.88
2022-12-27T11:31:08.658Z,13.63
2022-12-27T11:33:40.718Z,15.31
2022-12-27T11:36:10.882Z,16.41
2022-12-27T11:38:43.004Z,17.22
2022-12-27T11:41:24.676Z,16.08
2022-12-27T11:44:04.321Z,15.35
2022-12-27T11:46:45.197Z,10.45
2022-12-27T11:49:21.633Z,10.50
2022-12-27T11:52:43.267Z,11.07
2022-12-27T11:55:46.526Z,11.41
2022-12-27T11:58:52.837Z,11.22
2022-12-27T12:02:25.739Z,10.37
2022-12-27T12:05:49.862Z,11.39
2022-12-27T12:08:39.269Z,10.34
2022-12-27T12:11:24.365Z,9.59
2022-12-27T12:14:27.122Z,8.95
2022-12-27T12:17:13.968Z,8.43
2022-12-27T12:20:17.776Z,7.65
2022-12-27T12:23:09.229Z,7.53
2022-12-27T12:26:13.399Z,7.63
2022-12-27T12:29:25.658Z,7.91
2022-12-27T12:32:26.094Z,7.97
2022-12-27T12:35:27.381Z,7.95
2022-12-27T12:38:05.431Z,7.87
2022-12-27T12:41:22.367Z,7.94
2022-12-27T12:44:49.433Z,7.97
2022-12-27T12:47:50.692Z,7.63
2022-12-27T12:50:36.800Z,7.71
2022-12-27T12:53:29.828Z,7.75
2022-12-27T12:56:23.860Z,7.65
2022-12-27T12:59:13.715Z,7.86
2022-12-27T13:01:59.773Z,7.90
2022-12-27T13:04:43.572Z,7.74
2022-12-27T13:07:39.926Z,8.19
2022-12-27T13:10:43.398Z,8.30
2022-12-27T13:13:23.889Z,8.44
2022-12-27T13:16:06.159Z,8.54
2022-12-27T13:18:49.194Z,8.96
2022-12-27T13:21:35.296Z,9.50
2022-12-27T13:24:17.412Z,9.79
2022-12-27T13:26:54.598Z,9.90
2022-12-27T13:30:00.434Z,10.10
2022-12-27T13:33:07.255Z,9.98
2022-12-27T13:35:51.120Z,9.51
2022-12-27T13:38:37.798Z,10.18
2022-12-27T13:41:35.238Z,10.91
2022-12-27T13:44:36.517Z,10.38
2022-12-27T13:47:55.527Z,11.14
2022-12-27T13:50:56.357Z,11.73
2022-12-27T13:54:20.150Z,11.87
2022-12-27T13:57:05.954Z,11.20
2022-12-27T13:59:59.652Z,11.17
2022-12-27T14:03:01.581Z,10.66
2022-12-27T14:06:30.842Z,10.28
2022-12-27T14:09:46.860Z,9.81
2022-12-27T14:12:53.628Z,9.62
2022-12-27T14:15:27.608Z,9.65
2022-12-27T14:18:21.058Z,9.55
2022-12-27T14:21:07.658Z,9.57
2022-12-27T14:23:58.189Z,9.46
2022-12-27T14:27:43.766Z,9.31
2022-12-27T14:30:41.757Z,9.07
2022-12-27T14:34:08.296Z,8.71
2022-12-27T14:37:29.320Z,8.53
2022-12-27T14:40:35.134Z,8.58
2022-12-27T14:44:02.077Z,8.69
2022-12-27T14:47:08.531Z,8.85
2022-12-27T14:50:30.758Z,8.89
2022-12-27T14:53:50.336Z,8.97
2022-12-27T14:56:32.327Z,9.04
2022-12-27T14:59:23.461Z,9.03
2022-12-27T15:02:13.389Z,9.02
2022-12-27T15:05:01.479Z,8.97
2022-12-27T15:07:52.513Z,8.90
2022-12-27T15:10:43.769Z,8.86
2022-12-27T15:13:19.214Z,8.48
2022-12-27T15:16:03.566Z,8.15
2022-12-27T15:19:01.777Z,7.92
2022-12-27T15:21:52.463Z,7.69
2022-12-27T15:24:38.134Z,7.70
2022-12-27T15:27:20.420Z,7.55
2022-12-27T15:30:07.895Z,7.87
2022-12-27T15:32:53.233Z,7.70
2022-12-27T15:35:40.907Z,7.22
2022-12-27T15:38:14.212Z,7.03
2022-12-27T15:41:18.199Z,6.95
2022-12-27T15:44:11.974Z,7.09
2022-12-27T15:47:15.482Z,7.34
2022-12-27T15:50:14.069Z,7.31
2022-12-27T15:53:19.080Z,7.29
2022-12-27T15:56:38.281Z,7.19
2022-12-27T15:59:41.510Z,7.21
2022-12-27T16:02:29.460Z,7.01
2022-12-27T16:05:33.544Z,6.96
2022-12-27T16:08:34.439Z,7.06
2022-12-27T16:11:05.196Z,7.09
2022-12-27T16:13:48.833Z,7.09
2022-12-27T16:16:56.411Z,7.07
2022-12-27T16:19:55.427Z,7.06
2022-12-27T16:22:32.472Z,6.69
2022-12-27T16:25:28.675Z,6.73
2022-12-27T16:28:04.839Z,6.78
2022-12-27T16:30:43.613Z,6.80
2022-12-27T16:33:30.536Z,6.79
2022-12-27T16:36:15.175Z,6.71
2022-12-27T16:38:55.361Z,6.22
2022-12-27T16:41:56.766Z,5.98
2022-12-27T16:44:51.519Z,6.03
2022-12-27T16:47:46.152Z,6.11
2022-12-27T16:50:45.508Z,6.17
2022-12-27T16:53:48.483Z,6.06
2022-12-27T16:56:22.293Z,6.18
2022-12-27T16:58:51.737Z,6.19
2022-12-27T17:01:58.599Z,5.99
2022-12-27T17:04:56.054Z,5.92
2022-12-27T17:08:05.979Z,5.89
2022-12-27T17:11:03.254Z,6.03
2022-12-27T17:13:49.856Z,6.04
2022-12-27T17:16:24.005Z,6.09
2022-12-27T17:18:55.873Z,6.11
2022-12-27T17:21:30.725Z,6.06
2022-12-27T17:24:04.968Z,6.07
2022-12-27T17:27:04.407Z,6.08
2022-12-27T17:29:58.171Z,6.01
2022-12-27T17:32:55.115Z,5.92
2022-12-27T17:35:32.793Z,5.92
2022-12-27T17:38:20.893Z,5.88
2022-12-27T17:41:03.673Z,5.89
2022-12-27T17:43:48.707Z,5.93
2022-12-27T17:46:36.292Z,5.86
2022-12-27T17:49:08.716Z,5.64
2022-12-27T17:51:40.902Z,5.70
2022-12-27T17:54:24.683Z,5.63
2022-12-27T17:56:59.563Z,5.62
2022-12-27T17:59:29.210Z,5.65
2022-12-27T18:02:02.547Z,5.59
2022-12-27T18:04:36.038Z,5.45
2022-12-27T18:07:07.613Z,5.32
2022-12-27T18:09:40.556Z,5.18
2022-12-27T18:12:18.411Z,5.14
2022-12-27T18:14:53.015Z,5.20
2022-12-27T18:17:29.616Z,5.01
2022-12-27T18:19:57.894Z,5.15
2022-12-27T18:22:25.123Z,5.45
2022-12-27T18:24:51.928Z,5.75
2022-12-27T18:27:24.573Z,5.81
2022-12-27T18:29:52.189Z,5.87
2022-12-27T18:32:19.863Z,5.91
2022-12-27T18:34:57.123Z,5.95
2022-12-27T18:37:27.509Z,5.84
2022-12-27T18:39:58.958Z,6.01
2022-12-27T18:42:33.067Z,6.05
2022-12-27T18:45:04.726Z,5.97
2022-12-27T18:47:39.791Z,5.79
2022-12-27T18:50:18.685Z,5.95
2022-12-27T18:52:52.894Z,5.97
2022-12-27T18:55:24.955Z,6.13
2022-12-27T18:58:03.668Z,5.87
2022-12-27T19:00:31.033Z,5.86
2022-12-27T19:03:14.326Z,5.30
2022-12-27T19:06:08.117Z,5.19
2022-12-27T19:08:43.566Z,5.22
2022-12-27T19:11:21.107Z,5.32
2022-12-27T19:13:52.935Z,5.62
2022-12-27T19:16:25.499Z,5.80
2022-12-27T19:18:58.255Z,5.92
2022-12-27T19:21:32.900Z,5.78
2022-12-27T19:24:37.143Z,5.86
2022-12-27T19:27:22.317Z,5.73
2022-12-27T19:29:51.280Z,5.49
2022-12-27T19:32:26.689Z,5.44
2022-12-27T19:35:00.168Z,5.34
2022-12-27T19:37:31.633Z,5.03
2022-12-27T19:40:00.374Z,4.85
2022-12-27T19:42:30.706Z,4.68
2022-12-27T19:44:57.873Z,4.84
2022-12-27T19:47:26.422Z,5.17
2022-12-27T19:49:53.349Z,5.06
2022-12-27T19:52:24.219Z,5.11
2022-12-27T19:55:00.162Z,5.04
2022-12-27T19:57:28.589Z,4.88
2022-12-27T19:59:55.358Z,4.76
2022-12-27T20:02:22.375Z,4.72
2022-12-27T20:04:49.289Z,4.70
2022-12-27T20:07:21.693Z,4.70
2022-12-27T20:09:49.426Z,4.62
2022-12-27T20:12:16.487Z,4.33
2022-12-27T20:14:45.139Z,4.33
2022-12-27T20:17:11.897Z,4.45
2022-12-27T20:19:39.656Z,4.48
2022-12-27T20:22:06.439Z,4.44
2022-12-27T20:24:33.281Z,4.38
2022-12-27T20:27:00.996Z,4.30
2022-12-27T20:29:27.908Z,4.32
2022-12-27T20:31:58.658Z,4.36
2022-12-27T20:34:25.859Z,4.34
2022-12-27T20:36:52.734Z,4.32
2022-12-27T20:39:19.542Z,4.34
2022-12-27T20:41:46.664Z,4.28
2022-12-27T20:44:14.408Z,4.24
2022-12-27T20:46:41.525Z,4.00
2022-12-27T20:49:10.008Z,3.84
2022-12-27T20:51:39.280Z,3.67
2022-12-27T20:54:07.650Z,3.73
2022-12-27T20:56:34.835Z,3.75
2022-12-27T20:59:01.755Z,3.77
2022-12-27T21:01:31.356Z,3.85
2022-12-27T21:04:00.779Z,3.82
2022-12-27T21:06:29.317Z,3.68
2022-12-27T21:08:58.567Z,3.56
2022-12-27T21:11:29.086Z,3.45
2022-12-27T21:13:56.517Z,3.50
2022-12-27T21:16:27.889Z,3.59
2022-12-27T21:18:56.656Z,3.70
2022-12-27T21:21:28.313Z,3.68
2022-12-27T21:23:58.183Z,3.75
2022-12-27T21:26:28.486Z,3.73
2022-12-27T21:28:56.902Z,3.63
2022-12-27T21:31:24.106Z,3.59
2022-12-27T21:33:51.254Z,3.50
2022-12-27T21:36:21.125Z,3.46
2022-12-27T21:38:49.850Z,3.36
2022-12-27T21:41:21.554Z,3.21
2022-12-27T21:43:49.920Z,3.22
2022-12-27T21:46:20.803Z,3.15
2022-12-27T21:48:53.903Z,3.10
2022-12-27T21:51:21.556Z,3.04
2022-12-27T21:53:49.300Z,3.07
2022-12-27T21:56:18.236Z,3.10
2022-12-27T21:58:45.662Z,3.10
2022-12-27T22:01:16.149Z,3.16
2022-12-27T22:03:46.332Z,3.25
2022-12-27T22:06:16.877Z,3.30
2022-12-27T22:08:45.691Z,3.20
2022-12-27T22:11:14.186Z,3.13
2022-12-27T22:13:43.339Z,3.03
2022-12-27T22:16:14.273Z,3.09
2022-12-27T22:18:41.521Z,3.12
2022-12-27T22:21:11.030Z,3.18
2022-12-27T22:23:41.576Z,3.24
2022-12-27T22:26:12.229Z,3.32
2022-12-27T22:28:39.342Z,3.34
2022-12-27T22:31:10.216Z,3.37
2022-12-27T22:33:37.854Z,3.40
2022-12-27T22:36:07.369Z,3.45
2022-12-27T22:38:34.919Z,3.64
2022-12-27T22:41:06.782Z,3.50
2022-12-27T22:43:35.108Z,3.41
2022-12-27T22:46:07.882Z,3.32
2022-12-27T22:48:35.648Z,3.30
2022-12-27T22:51:08.123Z,3.38
2022-12-27T22:53:35.009Z,3.44
2022-12-27T22:56:02.034Z,3.37
2022-12-27T22:58:30.581Z,3.48
2022-12-27T23:00:58.313Z,3.45
2022-12-27T23:03:26.450Z,3.40
2022-12-27T23:05:58.173Z,3.42
2022-12-27T23:08:25.617Z,3.43
2022-12-27T23:10:53.354Z,3.37
2022-12-27T23:13:20.154Z,3.34
2022-12-27T23:15:47.083Z,3.34
2022-12-27T23:18:13.923Z,3.19
2022-12-27T23:21:20.638Z,3.22
2022-12-27T23:23:30.388Z,3.24
2022-12-27T23:25:57.211Z,3.23
2022-12-27T23:28:23.982Z,3.22
2022-12-27T23:30:51.093Z,3.22
2022-12-27T23:33:17.932Z,3.25
2022-12-27T23:35:46.080Z,3.24
2022-12-27T23:38:12.868Z,3.23
2022-12-27T23:40:39.953Z,3.19
2022-12-27T23:43:42.095Z,3.10
2022-12-27T23:45:53.590Z,3.13
2022-12-27T23:48:20.474Z,3.15
2022-12-27T23:50:48.776Z,3.14
2022-12-27T23:53:16.044Z,3.14
2022-12-27T23:55:42.803Z,3.12
2022-12-27T23:58:10.200Z,3.14
